FLI414 EKVG-EGPH
Flight info
| Callsign | FLI414 |
|---|---|
| Flight time | N/A |
| Altitude | 35000 |
| Route | ODEVA DCT NALAN DCT LAGAV/N0365F240 N560 FOYLE DCT STIRA |
| Aircraft | A320/M-SDE3FGHIRWY/LB1 |
Departure
| Time | 2026-05-06 15:14 |
|---|---|
| Airport | Vágar Airport (EKVG) |
Arrival
| Time | N/A |
|---|---|
| Airport | Edinburgh Airport (EGPH) |
| Time | Latitude | Longitude | Altitude | Speed | Heading |
|---|---|---|---|---|---|
| 2026-05-06 14:54 | 62.06724 | -7.28090 | 296 ft | 0 kts | 73° |
| 2026-05-06 15:10 | 62.06723 | -7.28084 | 294 ft | 1 kts | 95° |
| 2026-05-06 15:11 | 62.06690 | -7.28109 | 295 ft | 12 kts | 190° |
| 2026-05-06 15:11 | 62.06545 | -7.28083 | 292 ft | 17 kts | 191° |
| 2026-05-06 15:11 | 62.06482 | -7.28186 | 294 ft | 8 kts | 269° |
| 2026-05-06 15:11 | 62.06502 | -7.28310 | 298 ft | 11 kts | 300° |
| 2026-05-06 15:12 | 62.06544 | -7.28464 | 295 ft | 13 kts | 299° |
| 2026-05-06 15:12 | 62.06587 | -7.28652 | 296 ft | 17 kts | 292° |
| 2026-05-06 15:12 | 62.06643 | -7.28892 | 301 ft | 19 kts | 300° |
| 2026-05-06 15:12 | 62.06694 | -7.29131 | 302 ft | 14 kts | 275° |
| 2026-05-06 15:13 | 62.06716 | -7.29181 | 302 ft | 1 kts | 57° |
| 2026-05-06 15:13 | 62.06695 | -7.29091 | 302 ft | 28 kts | 119° |
| 2026-05-06 15:13 | 62.06466 | -7.28171 | 296 ft | 107 kts | 118° |
| 2026-05-06 15:13 | 62.06022 | -7.26401 | 369 ft | 156 kts | 115° |
| 2026-05-06 15:14 | 62.05460 | -7.24366 | 984 ft | 159 kts | 113° |
| 2026-05-06 15:14 | 62.04950 | -7.22306 | 1857 ft | 155 kts | 114° |
| 2026-05-06 15:14 | 62.04444 | -7.20227 | 2480 ft | 166 kts | 114° |
| 2026-05-06 15:14 | 62.03879 | -7.17906 | 2842 ft | 187 kts | 116° |
| 2026-05-06 15:15 | 62.03236 | -7.15281 | 3178 ft | 213 kts | 116° |
| 2026-05-06 15:15 | 62.02516 | -7.12365 | 3663 ft | 237 kts | 116° |
| 2026-05-06 15:15 | 62.01714 | -7.09132 | 4367 ft | 253 kts | 116° |
| 2026-05-06 15:15 | 62.00880 | -7.05787 | 5332 ft | 258 kts | 116° |
| 2026-05-06 15:16 | 62.00062 | -7.02354 | 6337 ft | 262 kts | 115° |
| 2026-05-06 15:16 | 61.99255 | -6.98837 | 7295 ft | 267 kts | 114° |
| 2026-05-06 15:16 | 61.98444 | -6.95248 | 8228 ft | 271 kts | 114° |
| 2026-05-06 15:16 | 61.97618 | -6.91598 | 9158 ft | 276 kts | 114° |
| 2026-05-06 15:17 | 61.96771 | -6.87888 | 10074 ft | 281 kts | 114° |
| 2026-05-06 15:17 | 61.95883 | -6.84015 | 10507 ft | 303 kts | 114° |
| 2026-05-06 15:17 | 61.94923 | -6.79859 | 10985 ft | 321 kts | 115° |
| 2026-05-06 15:17 | 61.93925 | -6.75558 | 11758 ft | 328 kts | 115° |
| 2026-05-06 15:18 | 61.92906 | -6.71180 | 12569 ft | 333 kts | 116° |
| 2026-05-06 15:18 | 61.91806 | -6.66812 | 13349 ft | 339 kts | 122° |
| 2026-05-06 15:18 | 61.90307 | -6.62900 | 14099 ft | 344 kts | 136° |
| 2026-05-06 15:18 | 61.88417 | -6.59733 | 14778 ft | 349 kts | 149° |
| 2026-05-06 15:19 | 61.86223 | -6.57501 | 15422 ft | 353 kts | 163° |
| 2026-05-06 15:19 | 61.83873 | -6.55889 | 16082 ft | 357 kts | 165° |
| 2026-05-06 15:19 | 61.81487 | -6.54279 | 16751 ft | 362 kts | 166° |
| 2026-05-06 15:19 | 61.79062 | -6.52637 | 17417 ft | 368 kts | 166° |
| 2026-05-06 15:20 | 61.76643 | -6.50988 | 18056 ft | 373 kts | 166° |
| 2026-05-06 15:20 | 61.74177 | -6.49304 | 18786 ft | 373 kts | 166° |
| 2026-05-06 15:20 | 61.71700 | -6.47609 | 19426 ft | 375 kts | 167° |
| 2026-05-06 15:20 | 61.69204 | -6.45909 | 20035 ft | 379 kts | 167° |
| 2026-05-06 15:21 | 61.66687 | -6.44200 | 20633 ft | 382 kts | 168° |
| 2026-05-06 15:21 | 61.64149 | -6.42479 | 21217 ft | 385 kts | 168° |
| 2026-05-06 15:21 | 61.61581 | -6.40744 | 21791 ft | 389 kts | 168° |
| 2026-05-06 15:21 | 61.58992 | -6.39005 | 22349 ft | 392 kts | 169° |
| 2026-05-06 15:22 | 61.56386 | -6.37254 | 22908 ft | 395 kts | 169° |
| 2026-05-06 15:22 | 61.53751 | -6.35482 | 23467 ft | 399 kts | 169° |
| 2026-05-06 15:22 | 61.51096 | -6.33696 | 23886 ft | 404 kts | 169° |
| 2026-05-06 15:22 | 61.48403 | -6.31895 | 24300 ft | 408 kts | 169° |
| 2026-05-06 15:23 | 61.45688 | -6.30085 | 24720 ft | 411 kts | 169° |
| 2026-05-06 15:23 | 61.42952 | -6.28264 | 25145 ft | 415 kts | 169° |
| 2026-05-06 15:23 | 61.40190 | -6.26422 | 25563 ft | 418 kts | 169° |
| 2026-05-06 15:23 | 61.37411 | -6.24569 | 25983 ft | 421 kts | 169° |
| 2026-05-06 15:24 | 61.34607 | -6.22704 | 26389 ft | 424 kts | 169° |
| 2026-05-06 15:24 | 61.31783 | -6.20827 | 26794 ft | 428 kts | 169° |
| 2026-05-06 15:24 | 61.28939 | -6.18941 | 27189 ft | 431 kts | 169° |
| 2026-05-06 15:24 | 61.26107 | -6.17071 | 27576 ft | 434 kts | 169° |
| 2026-05-06 15:25 | 61.23221 | -6.15164 | 27965 ft | 437 kts | 169° |
| 2026-05-06 15:25 | 61.20312 | -6.13255 | 28353 ft | 440 kts | 169° |
| 2026-05-06 15:25 | 61.17376 | -6.11337 | 28675 ft | 444 kts | 170° |
| 2026-05-06 15:25 | 61.14415 | -6.09406 | 29026 ft | 448 kts | 170° |
| 2026-05-06 15:26 | 61.11434 | -6.07465 | 29381 ft | 451 kts | 170° |
| 2026-05-06 15:26 | 61.08432 | -6.05512 | 29746 ft | 454 kts | 170° |
| 2026-05-06 15:26 | 61.05405 | -6.03543 | 30099 ft | 457 kts | 170° |
| 2026-05-06 15:26 | 61.02356 | -6.01559 | 30393 ft | 460 kts | 169° |
| 2026-05-06 15:27 | 60.99329 | -5.99633 | 30680 ft | 461 kts | 171° |
| 2026-05-06 15:27 | 60.96234 | -5.97879 | 30974 ft | 462 kts | 172° |
| 2026-05-06 15:27 | 60.93112 | -5.96301 | 31261 ft | 463 kts | 173° |
| 2026-05-06 15:27 | 60.89962 | -5.94826 | 31495 ft | 464 kts | 174° |
| 2026-05-06 15:28 | 60.86797 | -5.93391 | 31734 ft | 467 kts | 174° |
| 2026-05-06 15:28 | 60.83619 | -5.91936 | 32107 ft | 467 kts | 174° |
| 2026-05-06 15:28 | 60.80451 | -5.90446 | 32521 ft | 467 kts | 173° |
| 2026-05-06 15:28 | 60.77294 | -5.88912 | 32928 ft | 466 kts | 172° |
| 2026-05-06 15:29 | 60.74140 | -5.87353 | 33344 ft | 465 kts | 172° |
| 2026-05-06 15:29 | 60.71003 | -5.85800 | 33779 ft | 464 kts | 172° |
| 2026-05-06 15:29 | 60.67868 | -5.84258 | 34169 ft | 463 kts | 172° |
| 2026-05-06 15:29 | 60.64736 | -5.82732 | 34500 ft | 462 kts | 172° |
| 2026-05-06 15:30 | 60.61612 | -5.81222 | 34787 ft | 461 kts | 172° |
| 2026-05-06 15:30 | 60.58488 | -5.79721 | 34994 ft | 462 kts | 172° |
| 2026-05-06 15:30 | 60.55379 | -5.78227 | 35042 ft | 455 kts | 172° |
| 2026-05-06 15:31 | 60.49302 | -5.75306 | 35045 ft | 449 kts | 172° |
| 2026-05-06 15:31 | 60.43224 | -5.72406 | 35040 ft | 449 kts | 172° |
| 2026-05-06 15:32 | 60.34107 | -5.68073 | 35040 ft | 448 kts | 172° |
| 2026-05-06 15:32 | 60.28017 | -5.65182 | 35038 ft | 450 kts | 172° |
| 2026-05-06 15:33 | 60.21923 | -5.62310 | 35036 ft | 450 kts | 172° |
| 2026-05-06 15:33 | 60.15828 | -5.59454 | 35045 ft | 450 kts | 172° |
| 2026-05-06 15:34 | 60.09736 | -5.56591 | 35047 ft | 450 kts | 172° |
| 2026-05-06 15:34 | 60.03688 | -5.53756 | 35016 ft | 449 kts | 173° |
| 2026-05-06 15:35 | 59.97593 | -5.50922 | 35024 ft | 449 kts | 173° |
| 2026-05-06 15:35 | 59.91501 | -5.48106 | 35034 ft | 450 kts | 173° |
| 2026-05-06 15:36 | 59.85404 | -5.45300 | 35044 ft | 450 kts | 173° |
| 2026-05-06 15:36 | 59.79300 | -5.42487 | 35042 ft | 450 kts | 173° |
| 2026-05-06 15:37 | 59.73202 | -5.39711 | 35021 ft | 449 kts | 173° |
| 2026-05-06 15:37 | 59.67103 | -5.36936 | 35035 ft | 449 kts | 173° |
| 2026-05-06 15:38 | 59.61014 | -5.34157 | 35039 ft | 449 kts | 173° |
| 2026-05-06 15:38 | 59.54924 | -5.31401 | 35045 ft | 449 kts | 173° |
| 2026-05-06 15:39 | 59.48838 | -5.28648 | 35005 ft | 449 kts | 173° |
| 2026-05-06 15:39 | 59.42753 | -5.25919 | 35018 ft | 449 kts | 173° |
| 2026-05-06 15:40 | 59.36663 | -5.23205 | 35026 ft | 449 kts | 173° |
| 2026-05-06 15:40 | 59.30618 | -5.20500 | 35032 ft | 448 kts | 173° |
| 2026-05-06 15:41 | 59.24531 | -5.17796 | 35036 ft | 448 kts | 173° |
| 2026-05-06 15:41 | 59.18446 | -5.15101 | 35006 ft | 448 kts | 173° |
| 2026-05-06 15:42 | 59.12356 | -5.12418 | 35012 ft | 449 kts | 173° |
| 2026-05-06 15:42 | 59.06256 | -5.09733 | 35032 ft | 448 kts | 173° |
| 2026-05-06 15:43 | 59.00180 | -5.07054 | 35043 ft | 447 kts | 173° |
| 2026-05-06 15:43 | 58.94116 | -5.04400 | 35045 ft | 446 kts | 173° |
| 2026-05-06 15:44 | 58.88097 | -5.01790 | 35005 ft | 446 kts | 173° |
| 2026-05-06 15:44 | 58.82038 | -4.99183 | 35018 ft | 446 kts | 173° |
| 2026-05-06 15:45 | 58.75978 | -4.96574 | 35025 ft | 446 kts | 173° |
| 2026-05-06 15:45 | 58.69921 | -4.93960 | 35024 ft | 446 kts | 173° |
| 2026-05-06 15:46 | 58.63858 | -4.91353 | 35027 ft | 446 kts | 173° |
| 2026-05-06 15:46 | 58.57839 | -4.88782 | 35023 ft | 446 kts | 173° |
| 2026-05-06 15:47 | 58.51783 | -4.86214 | 35022 ft | 445 kts | 173° |
| 2026-05-06 15:47 | 58.45731 | -4.83650 | 35019 ft | 446 kts | 173° |
| 2026-05-06 15:48 | 58.39675 | -4.81090 | 35018 ft | 445 kts | 173° |
| 2026-05-06 15:48 | 58.33626 | -4.78542 | 34989 ft | 446 kts | 173° |
| 2026-05-06 15:49 | 58.27562 | -4.76000 | 34990 ft | 446 kts | 173° |
| 2026-05-06 15:49 | 58.21493 | -4.73464 | 34994 ft | 446 kts | 173° |
| 2026-05-06 15:50 | 58.15423 | -4.70929 | 34990 ft | 447 kts | 173° |
| 2026-05-06 15:50 | 58.09388 | -4.68420 | 34984 ft | 448 kts | 172° |
| 2026-05-06 15:51 | 58.03290 | -4.65906 | 34988 ft | 449 kts | 172° |
| 2026-05-06 15:51 | 57.97178 | -4.63384 | 34990 ft | 449 kts | 172° |
| 2026-05-06 15:52 | 57.91075 | -4.60868 | 34990 ft | 449 kts | 172° |
| 2026-05-06 15:52 | 57.84976 | -4.58365 | 34989 ft | 448 kts | 172° |
| 2026-05-06 15:53 | 57.78871 | -4.55876 | 34963 ft | 449 kts | 172° |
| 2026-05-06 15:53 | 57.72767 | -4.53396 | 34980 ft | 449 kts | 172° |
| 2026-05-06 15:54 | 57.66693 | -4.50942 | 34976 ft | 449 kts | 172° |
| 2026-05-06 15:54 | 57.60577 | -4.48466 | 34992 ft | 450 kts | 172° |
| 2026-05-06 15:55 | 57.54460 | -4.45999 | 34988 ft | 451 kts | 172° |
| 2026-05-06 15:55 | 57.48311 | -4.43529 | 34997 ft | 452 kts | 172° |
| 2026-05-06 15:56 | 57.42160 | -4.41072 | 35002 ft | 452 kts | 172° |
| 2026-05-06 15:56 | 57.36005 | -4.38623 | 34999 ft | 452 kts | 172° |
| 2026-05-06 15:57 | 57.29857 | -4.36173 | 34956 ft | 452 kts | 172° |
| 2026-05-06 15:57 | 57.23703 | -4.33734 | 34968 ft | 452 kts | 172° |
| 2026-05-06 15:58 | 57.20625 | -4.32520 | 34576 ft | 452 kts | 172° |
| 2026-05-06 15:58 | 57.17578 | -4.31319 | 33914 ft | 454 kts | 172° |
| 2026-05-06 15:58 | 57.14487 | -4.30105 | 33155 ft | 454 kts | 172° |
| 2026-05-06 15:58 | 57.11399 | -4.28891 | 32419 ft | 451 kts | 173° |
| 2026-05-06 15:59 | 57.08353 | -4.27695 | 31704 ft | 444 kts | 173° |
| 2026-05-06 15:59 | 57.05366 | -4.26521 | 31009 ft | 434 kts | 173° |
| 2026-05-06 15:59 | 57.02444 | -4.25372 | 30306 ft | 426 kts | 173° |
| 2026-05-06 15:59 | 56.99570 | -4.24251 | 29567 ft | 419 kts | 173° |
| 2026-05-06 16:00 | 56.96737 | -4.23154 | 28802 ft | 414 kts | 173° |
| 2026-05-06 16:00 | 56.93912 | -4.22068 | 28056 ft | 416 kts | 173° |
| 2026-05-06 16:00 | 56.91069 | -4.21100 | 27326 ft | 414 kts | 178° |
| 2026-05-06 16:00 | 56.89173 | -4.20824 | 26854 ft | 411 kts | 184° |
| 2026-05-06 16:01 | 56.86334 | -4.21023 | 26161 ft | 406 kts | 192° |
| 2026-05-06 16:01 | 56.83538 | -4.21703 | 25475 ft | 404 kts | 193° |
| 2026-05-06 16:01 | 56.80750 | -4.22387 | 24808 ft | 404 kts | 193° |
| 2026-05-06 16:01 | 56.77970 | -4.23064 | 24152 ft | 401 kts | 193° |
| 2026-05-06 16:02 | 56.75254 | -4.23705 | 23481 ft | 387 kts | 193° |
| 2026-05-06 16:02 | 56.72620 | -4.24326 | 22724 ft | 375 kts | 193° |
| 2026-05-06 16:02 | 56.70062 | -4.24937 | 21986 ft | 365 kts | 193° |
| 2026-05-06 16:02 | 56.67573 | -4.25532 | 21269 ft | 357 kts | 192° |
| 2026-05-06 16:03 | 56.65141 | -4.26117 | 20568 ft | 349 kts | 192° |
| 2026-05-06 16:03 | 56.62755 | -4.26692 | 19883 ft | 343 kts | 192° |
| 2026-05-06 16:03 | 56.60414 | -4.27256 | 19209 ft | 336 kts | 192° |
| 2026-05-06 16:03 | 56.58113 | -4.27811 | 18554 ft | 331 kts | 192° |
| 2026-05-06 16:04 | 56.55865 | -4.28356 | 17850 ft | 327 kts | 192° |
| 2026-05-06 16:04 | 56.53624 | -4.28900 | 17113 ft | 323 kts | 191° |
| 2026-05-06 16:04 | 56.51409 | -4.29433 | 16393 ft | 319 kts | 191° |
| 2026-05-06 16:04 | 56.49215 | -4.29956 | 15671 ft | 316 kts | 191° |
| 2026-05-06 16:05 | 56.47049 | -4.30471 | 14989 ft | 312 kts | 191° |
| 2026-05-06 16:05 | 56.44909 | -4.30979 | 14318 ft | 309 kts | 191° |
| 2026-05-06 16:05 | 56.42783 | -4.31483 | 13638 ft | 306 kts | 191° |
| 2026-05-06 16:05 | 56.40674 | -4.31984 | 12902 ft | 304 kts | 190° |
| 2026-05-06 16:06 | 56.38588 | -4.32485 | 12181 ft | 301 kts | 190° |
| 2026-05-06 16:06 | 56.36523 | -4.32980 | 11479 ft | 298 kts | 189° |
| 2026-05-06 16:06 | 56.34495 | -4.33463 | 11116 ft | 291 kts | 189° |
| 2026-05-06 16:06 | 56.32490 | -4.33923 | 10917 ft | 290 kts | 187° |
| 2026-05-06 16:07 | 56.30468 | -4.33774 | 10657 ft | 292 kts | 173° |
| 2026-05-06 16:07 | 56.28500 | -4.33079 | 10331 ft | 282 kts | 169° |
| 2026-05-06 16:07 | 56.26631 | -4.32320 | 10004 ft | 269 kts | 169° |
| 2026-05-06 16:07 | 56.24847 | -4.31596 | 9729 ft | 256 kts | 169° |
| 2026-05-06 16:08 | 56.23170 | -4.30900 | 9541 ft | 248 kts | 169° |
| 2026-05-06 16:08 | 56.21488 | -4.30208 | 9344 ft | 247 kts | 169° |
| 2026-05-06 16:08 | 56.19811 | -4.29529 | 9152 ft | 246 kts | 169° |
| 2026-05-06 16:08 | 56.18146 | -4.28844 | 8968 ft | 245 kts | 169° |
| 2026-05-06 16:09 | 56.16488 | -4.28167 | 8779 ft | 243 kts | 169° |
| 2026-05-06 16:09 | 56.14858 | -4.27507 | 8596 ft | 237 kts | 169° |
| 2026-05-06 16:09 | 56.13269 | -4.26855 | 8406 ft | 231 kts | 169° |
| 2026-05-06 16:09 | 56.11718 | -4.26213 | 8222 ft | 226 kts | 169° |
| 2026-05-06 16:10 | 56.10196 | -4.25592 | 8038 ft | 222 kts | 169° |
| 2026-05-06 16:10 | 56.08698 | -4.24992 | 7847 ft | 220 kts | 169° |
| 2026-05-06 16:10 | 56.07211 | -4.24397 | 7641 ft | 218 kts | 169° |
| 2026-05-06 16:10 | 56.05739 | -4.23797 | 7435 ft | 216 kts | 169° |
| 2026-05-06 16:11 | 56.04273 | -4.23192 | 7236 ft | 216 kts | 169° |
| 2026-05-06 16:11 | 56.02808 | -4.22603 | 7030 ft | 215 kts | 169° |
| 2026-05-06 16:11 | 56.01348 | -4.22021 | 6830 ft | 214 kts | 169° |
| 2026-05-06 16:11 | 55.99892 | -4.21455 | 6623 ft | 214 kts | 169° |
| 2026-05-06 16:12 | 55.98436 | -4.20905 | 6427 ft | 214 kts | 169° |
| 2026-05-06 16:12 | 55.96983 | -4.20362 | 6216 ft | 212 kts | 169° |
| 2026-05-06 16:12 | 55.95542 | -4.19825 | 6003 ft | 211 kts | 169° |
| 2026-05-06 16:12 | 55.94126 | -4.19299 | 5794 ft | 209 kts | 169° |
| 2026-05-06 16:13 | 55.92728 | -4.18768 | 5572 ft | 201 kts | 169° |
| 2026-05-06 16:13 | 55.91403 | -4.18272 | 5395 ft | 188 kts | 169° |
| 2026-05-06 16:13 | 55.90144 | -4.17797 | 5186 ft | 183 kts | 169° |
| 2026-05-06 16:13 | 55.88919 | -4.17152 | 5035 ft | 184 kts | 161° |
| 2026-05-06 16:14 | 55.87725 | -4.16327 | 4945 ft | 184 kts | 159° |
| 2026-05-06 16:14 | 55.86536 | -4.15487 | 4837 ft | 184 kts | 159° |
| 2026-05-06 16:14 | 55.85355 | -4.14648 | 4731 ft | 179 kts | 160° |
| 2026-05-06 16:14 | 55.84228 | -4.13833 | 4619 ft | 172 kts | 159° |
| 2026-05-06 16:15 | 55.83182 | -4.12819 | 4508 ft | 171 kts | 150° |
| 2026-05-06 16:15 | 55.82182 | -4.11661 | 4427 ft | 172 kts | 149° |
| 2026-05-06 16:15 | 55.81199 | -4.10453 | 4377 ft | 172 kts | 140° |
| 2026-05-06 16:15 | 55.80651 | -4.08570 | 4324 ft | 178 kts | 97° |
| 2026-05-06 16:16 | 55.80764 | -4.06364 | 4272 ft | 181 kts | 82° |
| 2026-05-06 16:16 | 55.81031 | -4.04172 | 4227 ft | 182 kts | 79° |
| 2026-05-06 16:16 | 55.81316 | -4.02013 | 4153 ft | 181 kts | 79° |
| 2026-05-06 16:16 | 55.81603 | -3.99833 | 4073 ft | 181 kts | 79° |
| 2026-05-06 16:17 | 55.81706 | -3.97634 | 4006 ft | 178 kts | 93° |
| 2026-05-06 16:17 | 55.81691 | -3.95430 | 4014 ft | 179 kts | 93° |
| 2026-05-06 16:17 | 55.81675 | -3.93214 | 4001 ft | 179 kts | 94° |
| 2026-05-06 16:17 | 55.81670 | -3.92468 | 4004 ft | 179 kts | 93° |